Time;durP1;ratioP1;P1;durP2;ratioP2;P2;SDS_P1;SDS_P2;PMS_P1;PMS_P2;Temp;Humidity;BMP_temperature;BMP_pressure;BME280_temperature;BME280_humidity;BME280_pressure;Samples;Min_cycle;Max_cycle;Signal;HPM_P1;HPM_P2
2022/12/03 00:02:27;;;;;;;5.18;2.60;;;;;;;6.07;92.68;95340.88;5146151;27;20273;-73
2022/12/03 00:04:54;;;;;;;3.45;2.58;;;;;;;6.02;92.88;95338.22;5147663;27;20734;-74
2022/12/03 00:07:21;;;;;;;3.97;2.05;;;;;;;6.04;92.86;95344.13;5133861;27;20198;-73
2022/12/03 00:09:47;;;;;;;5.93;2.58;;;;;;;6.00;92.99;95353.84;5146835;27;20256;-74
2022/12/03 00:12:14;;;;;;;5.18;2.70;;;;;;;5.97;93.05;95360.59;5142695;27;20200;-74
2022/12/03 00:14:41;;;;;;;3.58;2.33;;;;;;;5.82;93.36;95357.16;5140329;27;20205;-72
2022/12/03 00:17:08;;;;;;;3.55;2.10;;;;;;;5.88;93.61;95356.88;5144302;27;20204;-73
2022/12/03 00:19:36;;;;;;;3.97;1.75;;;;;;;5.75;93.50;95362.03;5147617;27;20231;-74
2022/12/03 00:22:02;;;;;;;5.32;2.28;;;;;;;5.82;93.83;95366.03;5143270;27;20205;-73
2022/12/03 00:24:29;;;;;;;4.45;2.88;;;;;;;5.78;93.75;95366.88;5150430;27;20201;-74
2022/12/03 00:26:56;;;;;;;3.25;2.25;;;;;;;5.70;93.84;95366.38;5143337;27;20252;-74
2022/12/03 00:29:23;;;;;;;3.88;2.30;;;;;;;5.66;94.13;95370.72;5140082;27;20197;-74
2022/12/03 00:31:49;;;;;;;3.53;2.15;;;;;;;5.79;93.70;95368.47;5143526;27;20282;-73
2022/12/03 00:34:16;;;;;;;3.97;2.63;;;;;;;5.84;93.57;95371.94;5136100;27;20223;-74
2022/12/03 00:36:44;;;;;;;3.50;2.20;;;;;;;5.81;93.26;95367.13;5144033;27;20348;-74
2022/12/03 00:39:11;;;;;;;3.60;1.98;;;;;;;5.77;93.40;95371.44;5136939;27;20196;-74
2022/12/03 00:41:38;;;;;;;3.45;2.40;;;;;;;5.69;94.14;95375.53;5142504;27;20201;-74
2022/12/03 00:44:05;;;;;;;3.63;2.55;;;;;;;5.69;94.26;95380.91;5147095;27;20197;-74
2022/12/03 00:46:32;;;;;;;1.58;1.25;;;;;;;5.68;94.37;95379.31;5143806;27;20231;-74
2022/12/03 00:48:58;;;;;;;2.33;1.67;;;;;;;5.68;94.78;95379.31;5139870;27;20192;-75
2022/12/03 00:51:25;;;;;;;5.40;2.13;;;;;;;5.73;94.15;95381.16;5142251;27;20264;-74
2022/12/03 00:53:53;;;;;;;2.83;1.95;;;;;;;5.71;93.93;95384.13;5137380;27;20200;-75
2022/12/03 00:56:20;;;;;;;2.80;1.77;;;;;;;5.79;94.30;95389.97;5141337;27;20201;-74
2022/12/03 00:58:47;;;;;;;3.00;1.83;;;;;;;5.89;94.34;95398.00;5146573;27;20205;-73
2022/12/03 01:01:14;;;;;;;5.70;2.70;;;;;;;5.89;94.01;95400.69;5132731;27;20253;-75
2022/12/03 01:03:40;;;;;;;6.60;3.40;;;;;;;5.79;94.04;95395.34;5146213;27;20200;-74
2022/12/03 01:06:07;;;;;;;3.97;2.55;;;;;;;5.86;94.28;95393.19;5145415;27;20252;-74
2022/12/03 01:08:34;;;;;;;3.40;2.75;;;;;;;6.01;94.19;95399.25;5138982;27;20204;-74
2022/12/03 01:11:02;;;;;;;2.95;1.85;;;;;;;6.02;94.23;95402.75;5140419;27;20209;-74
2022/12/03 01:13:29;;;;;;;8.13;4.38;;;;;;;5.99;93.70;95400.66;5138026;27;20208;-73
2022/12/03 01:15:56;;;;;;;5.30;3.15;;;;;;;5.93;93.63;95407.13;5140237;27;20197;-75
2022/12/03 01:18:22;;;;;;;5.43;3.20;;;;;;;5.85;93.96;95405.00;5146239;27;20205;-73
2022/12/03 01:20:49;;;;;;;5.30;3.58;;;;;;;5.86;93.88;95412.00;5145358;27;20196;-75
2022/12/03 01:23:16;;;;;;;5.63;3.55;;;;;;;5.76;94.34;95410.16;5133549;27;20721;-75
2022/12/03 01:25:43;;;;;;;3.33;2.67;;;;;;;5.77;94.48;95403.69;5131915;27;20277;-75
2022/12/03 01:28:11;;;;;;;4.55;2.63;;;;;;;5.77;94.63;95416.34;5138487;27;20252;-75
2022/12/03 01:32:15;;;;;;;5.50;3.15;;;;;;;5.59;95.57;95413.22;5138881;27;20208;-73
2022/12/03 01:33:23;;;;;;;8.25;3.38;;;;;;;5.83;95.02;95413.34;5141544;27;20253;-74
2022/12/03 01:35:50;;;;;;;2.65;2.17;;;;;;;5.88;94.71;95415.19;5138719;27;20881;-74
2022/12/03 01:38:17;;;;;;;9.10;3.40;;;;;;;5.72;94.96;95418.00;5142489;27;20612;-75
2022/12/03 01:40:43;;;;;;;5.03;2.65;;;;;;;5.94;94.18;95414.13;5145605;27;20650;-75
2022/12/03 01:43:12;;;;;;;8.35;4.10;;;;;;;5.85;94.24;95410.38;5141955;27;20939;-75
2022/12/03 01:45:38;;;;;;;8.43;4.32;;;;;;;5.83;94.35;95405.28;5138580;27;20232;-75
2022/12/03 01:48:05;;;;;;;9.52;4.63;;;;;;;5.97;94.12;95402.81;5141758;27;20213;-74
2022/12/03 01:50:33;;;;;;;15.93;4.22;;;;;;;5.97;93.86;95409.00;5144908;27;20200;-74
2022/12/03 01:53:03;;;;;;;6.60;3.63;;;;;;;5.98;93.81;95409.81;5131501;27;20256;-75
2022/12/03 01:55:30;;;;;;;5.22;2.45;;;;;;;6.03;93.81;95413.25;5136983;27;20204;-74
2022/12/03 01:58:00;;;;;;;7.47;3.08;;;;;;;6.00;93.96;95413.03;5138708;27;20201;-73
2022/12/03 02:00:29;;;;;;;4.40;3.45;;;;;;;6.03;93.44;95407.06;5145785;27;20663;-75
2022/12/03 02:02:58;;;;;;;7.78;3.42;;;;;;;5.98;93.50;95404.41;5144656;27;20665;-75
2022/12/03 02:05:28;;;;;;;3.60;2.22;;;;;;;5.78;93.89;95388.38;5138308;27;20220;-74
2022/12/03 02:07:57;;;;;;;2.70;2.15;;;;;;;5.90;94.44;95407.69;5138270;27;20200;-74
2022/12/03 02:10:27;;;;;;;5.82;3.25;;;;;;;5.93;93.95;95412.50;5144707;27;20269;-73
2022/12/03 02:12:57;;;;;;;5.63;2.55;;;;;;;5.78;93.85;95405.31;5145261;27;20249;-73
2022/12/03 02:15:25;;;;;;;3.65;2.58;;;;;;;5.63;94.59;95406.19;5140163;27;20200;-75
2022/12/03 02:17:53;;;;;;;7.45;2.97;;;;;;;5.64;95.27;95407.81;5135970;27;20250;-75
2022/12/03 02:20:20;;;;;;;4.43;3.00;;;;;;;5.84;94.65;95406.09;5140556;27;20200;-74
2022/12/03 02:22:59;;;;;;;5.68;3.60;;;;;;;5.91;94.68;95406.59;5135376;27;20430;-73
2022/12/03 02:25:30;;;;;;;4.63;2.28;;;;;;;5.80;94.38;95405.03;5131418;27;20316;-75
2022/12/03 02:27:59;;;;;;;3.83;2.10;;;;;;;5.70;94.43;95404.03;5144532;27;20219;-74
2022/12/03 02:30:27;;;;;;;4.47;2.78;;;;;;;5.59;94.79;95396.28;5143228;27;20204;-74
2022/12/03 02:32:55;;;;;;;4.45;2.45;;;;;;;5.57;95.18;95404.63;5137533;27;20224;-75
2022/12/03 02:35:25;;;;;;;5.90;3.33;;;;;;;5.60;95.40;95404.06;5138356;27;20233;-73
2022/12/03 02:37:54;;;;;;;8.82;3.28;;;;;;;5.61;95.33;95402.16;5144314;27;20197;-75
2022/12/03 02:40:24;;;;;;;6.07;3.17;;;;;;;5.60;95.51;95393.31;5144778;27;20207;-74
2022/12/03 02:42:58;;;;;;;3.63;2.58;;;;;;;5.60;95.66;95398.69;5138480;27;20277;-73
2022/12/03 02:45:29;;;;;;;7.28;2.85;;;;;;;5.65;95.86;95395.16;5149684;27;20567;-74
2022/12/03 02:47:59;;;;;;;6.13;3.05;;;;;;;5.66;95.29;95397.59;5140379;27;20214;-74
2022/12/03 02:50:29;;;;;;;6.65;3.63;;;;;;;5.77;95.53;95402.91;5151601;27;20252;-73
2022/12/03 02:52:57;;;;;;;4.28;2.53;;;;;;;5.79;95.15;95403.41;5140084;27;20208;-74
2022/12/03 02:55:25;;;;;;;4.30;2.35;;;;;;;5.82;95.07;95395.63;5144669;27;20205;-74
2022/12/03 02:57:53;;;;;;;6.72;3.47;;;;;;;5.87;95.10;95397.47;5142021;27;20204;-74
2022/12/03 03:00:21;;;;;;;4.95;3.15;;;;;;;5.98;94.80;95391.78;5137279;27;20207;-74
2022/12/03 03:02:49;;;;;;;6.40;3.08;;;;;;;6.01;94.25;95401.19;5139284;27;20205;-74
2022/12/03 03:05:20;;;;;;;6.32;3.70;;;;;;;5.99;94.25;95400.66;5144588;27;20243;-73
2022/12/03 03:07:47;;;;;;;7.60;4.25;;;;;;;6.03;93.90;95397.09;5144130;27;20204;-74
2022/12/03 03:10:17;;;;;;;4.50;2.83;;;;;;;6.13;93.92;95401.63;5141450;27;20244;-74
2022/12/03 03:12:44;;;;;;;6.63;3.42;;;;;;;6.10;93.58;95396.00;5142052;27;20201;-74
2022/12/03 03:15:13;;;;;;;6.25;3.55;;;;;;;6.16;93.70;95390.28;5141857;27;20926;-74
2022/12/03 03:17:41;;;;;;;4.47;2.75;;;;;;;6.06;93.91;95390.38;5141074;27;20601;-75
2022/12/03 03:20:09;;;;;;;6.75;3.83;;;;;;;5.96;94.13;95401.19;5147945;27;20192;-73
2022/12/03 03:22:39;;;;;;;3.45;2.60;;;;;;;5.90;94.96;95388.88;5149146;27;20677;-75
2022/12/03 03:25:09;;;;;;;4.53;2.70;;;;;;;5.76;94.75;95395.91;5146605;27;20304;-74
2022/12/03 03:27:36;;;;;;;9.00;4.03;;;;;;;5.82;94.83;95394.81;5148678;27;20282;-73
2022/12/03 03:30:04;;;;;;;5.68;3.40;;;;;;;5.79;94.78;95384.59;5134133;27;20209;-74
2022/12/03 03:32:33;;;;;;;5.25;2.80;;;;;;;5.88;95.11;95388.31;5147702;27;20223;-73
2022/12/03 03:35:00;;;;;;;6.88;3.22;;;;;;;5.92;94.26;95394.78;5144189;27;20227;-73
2022/12/03 03:37:28;;;;;;;5.10;3.45;;;;;;;5.92;94.37;95389.38;5140875;27;20635;-73
2022/12/03 03:39:55;;;;;;;6.68;3.63;;;;;;;5.93;93.78;95396.38;5144484;27;20212;-73
2022/12/03 03:42:22;;;;;;;4.70;3.22;;;;;;;5.97;94.21;95397.44;5147997;27;20193;-73
2022/12/03 03:44:49;;;;;;;10.43;3.75;;;;;;;5.94;93.43;95395.28;5144951;27;20221;-73
2022/12/03 03:47:17;;;;;;;3.95;2.25;;;;;;;5.88;93.90;95399.88;5140369;27;20240;-73
2022/12/03 03:49:46;;;;;;;5.18;3.42;;;;;;;5.96;93.85;95410.06;5154233;27;20572;-75
2022/12/03 03:52:13;;;;;;;3.72;2.72;;;;;;;5.97;94.14;95413.56;5150165;27;20280;-75
2022/12/03 03:54:40;;;;;;;10.23;3.67;;;;;;;5.91;93.58;95409.28;5145205;27;20698;-74
2022/12/03 03:57:07;;;;;;;3.13;2.58;;;;;;;5.90;93.75;95413.06;5135707;27;20209;-74
2022/12/03 03:59:34;;;;;;;6.03;2.88;;;;;;;5.96;93.01;95406.59;5133434;27;20257;-74
2022/12/03 04:02:01;;;;;;;4.72;2.67;;;;;;;5.83;93.16;95401.78;5147773;27;20201;-74
2022/12/03 04:04:32;;;;;;;3.40;2.63;;;;;;;5.80;93.46;95396.97;5146084;27;20204;-74
2022/12/03 04:07:00;;;;;;;5.05;2.83;;;;;;;5.60;94.27;95404.06;5140091;27;20734;-74
2022/12/03 04:09:27;;;;;;;3.15;2.33;;;;;;;5.74;95.07;95408.84;5140941;27;20204;-73
2022/12/03 04:14:37;;;;;;;5.10;2.40;;;;;;;5.68;94.38;95416.94;5140118;27;20223;-74
2022/12/03 04:17:04;;;;;;;4.13;2.80;;;;;;;5.71;94.46;95411.00;5145131;27;20204;-74
2022/12/03 04:19:31;;;;;;;6.43;3.17;;;;;;;5.76;94.18;95426.28;5146475;27;20196;-74
2022/12/03 04:24:43;;;;;;;4.47;2.53;;;;;;;5.84;93.39;95427.59;5148166;27;20204;-74
2022/12/03 04:29:54;;;;;;;3.97;2.05;;;;;;;5.80;93.69;95431.91;5140518;27;20192;-74
2022/12/03 04:37:50;;;;;;;3.22;2.03;;;;;;;5.75;93.72;95431.94;5146765;27;20322;-75
2022/12/03 04:43:02;;;;;;;2.60;1.92;;;;;;;5.68;94.01;95433.06;5133141;27;20185;-74
2022/12/03 04:45:29;;;;;;;7.63;2.95;;;;;;;5.78;94.54;95439.44;5146466;27;20204;-73
2022/12/03 04:47:56;;;;;;;3.95;2.38;;;;;;;5.86;93.46;95449.63;5142199;27;20288;-73
2022/12/03 04:50:23;;;;;;;3.63;1.88;;;;;;;5.80;93.76;95445.34;5135967;27;20205;-73
2022/12/03 04:52:49;;;;;;;3.78;2.28;;;;;;;5.66;94.24;95437.91;5142483;27;20197;-74
2022/12/03 04:55:18;;;;;;;3.22;2.45;;;;;;;5.61;94.83;95437.91;5136650;27;20208;-73
2022/12/03 04:57:44;;;;;;;6.80;3.33;;;;;;;5.61;94.95;95437.91;5142783;27;20260;-77
2022/12/03 05:00:12;;;;;;;2.35;2.10;;;;;;;5.63;94.29;95430.38;5138894;27;20204;-73
2022/12/03 05:02:39;;;;;;;4.38;2.22;;;;;;;5.67;94.74;95442.19;5142674;27;20242;-75
2022/12/03 05:05:07;;;;;;;4.18;2.15;;;;;;;5.82;94.68;95433.25;5146595;27;20201;-75
2022/12/03 05:07:34;;;;;;;3.53;2.47;;;;;;;5.94;93.85;95441.00;5132063;27;20722;-74
2022/12/03 05:10:00;;;;;;;4.80;3.00;;;;;;;5.96;94.04;95438.84;5146120;27;20205;-74
2022/12/03 05:12:28;;;;;;;3.78;2.33;;;;;;;5.81;93.90;95439.72;5132472;27;20201;-74
2022/12/03 05:14:55;;;;;;;4.97;2.15;;;;;;;5.73;93.95;95440.31;5145999;27;20548;-75
2022/12/03 05:17:22;;;;;;;2.35;2.10;;;;;;;5.62;94.39;95438.72;5132479;27;20257;-73
2022/12/03 05:22:33;;;;;;;3.42;2.05;;;;;;;5.72;95.25;95444.88;5140001;27;20556;-74
2022/12/03 05:25:00;;;;;;;4.13;2.22;;;;;;;5.93;94.15;95444.78;5132104;27;20193;-74
2022/12/03 05:27:28;;;;;;;3.85;2.80;;;;;;;5.88;93.71;95437.53;5131847;27;20277;-74
2022/12/03 05:29:55;;;;;;;1.67;1.38;;;;;;;5.67;94.22;95441.41;5139057;27;20200;-74
2022/12/03 05:32:22;;;;;;;4.45;2.30;;;;;;;5.59;95.11;95439.28;5138662;27;20273;-73
2022/12/03 05:34:48;;;;;;;2.92;2.20;;;;;;;5.75;94.90;95448.06;5145124;27;20244;-73
2022/12/03 05:37:15;;;;;;;5.80;2.42;;;;;;;5.81;94.62;95446.97;5145745;27;20189;-73
2022/12/03 05:39:42;;;;;;;2.22;1.98;;;;;;;5.89;94.35;95459.84;5131548;27;20212;-75
2022/12/03 05:44:55;;;;;;;3.15;1.83;;;;;;;5.71;93.96;95448.63;5141895;27;20195;-74
2022/12/03 05:47:21;;;;;;;4.38;1.88;;;;;;;5.83;93.58;95455.56;5138570;27;20227;-75
2022/12/03 05:49:48;;;;;;;3.22;1.88;;;;;;;5.96;93.56;95460.38;5140676;27;20200;-74
2022/12/03 05:52:15;;;;;;;2.85;2.03;;;;;;;5.95;93.52;95458.75;5136678;27;20193;-74
2022/12/03 05:54:42;;;;;;;3.10;1.92;;;;;;;5.87;93.14;95462.81;5140320;27;20277;-73
2022/12/03 05:57:08;;;;;;;2.67;1.10;;;;;;;5.82;93.28;95459.34;5136757;27;20204;-72
2022/12/03 05:59:35;;;;;;;3.33;1.63;;;;;;;5.67;93.23;95463.69;5139845;27;20201;-73
2022/12/03 06:02:03;;;;;;;3.08;1.42;;;;;;;5.63;93.47;95468.00;5150467;27;20208;-74
2022/12/03 06:04:30;;;;;;;2.97;1.92;;;;;;;5.68;93.60;95481.44;5138504;27;20246;-74
2022/12/03 06:06:57;;;;;;;2.55;1.58;;;;;;;5.71;93.55;95478.22;5144885;27;20233;-73
2022/12/03 06:09:23;;;;;;;3.35;1.67;;;;;;;5.67;94.01;95477.13;5131504;27;20200;-73
2022/12/03 06:11:52;;;;;;;3.17;1.55;;;;;;;5.69;94.21;95488.44;5145187;27;20259;-74
2022/12/03 06:14:19;;;;;;;3.70;1.95;;;;;;;5.69;94.41;95493.81;5131639;27;20196;-73
2022/12/03 06:16:46;;;;;;;6.50;2.25;;;;;;;5.73;93.81;95483.31;5131151;27;20204;-72
2022/12/03 06:19:14;;;;;;;2.22;1.48;;;;;;;5.92;93.60;95480.81;5144862;27;20200;-73
2022/12/03 06:21:41;;;;;;;4.53;2.05;;;;;;;6.05;92.22;95485.59;5138980;27;20306;-73
2022/12/03 06:24:08;;;;;;;4.00;2.00;;;;;;;5.66;93.04;95482.78;5149284;27;20203;-74
2022/12/03 06:26:35;;;;;;;3.42;2.00;;;;;;;5.65;93.17;95487.34;5130943;27;20576;-74
2022/12/03 06:29:01;;;;;;;3.63;2.75;;;;;;;5.69;93.59;95488.44;5131736;27;20212;-75
2022/12/03 06:31:28;;;;;;;1.90;1.73;;;;;;;5.71;93.47;95494.34;5141622;27;20216;-74
2022/12/03 06:33:55;;;;;;;2.38;1.65;;;;;;;5.76;93.08;95487.31;5140581;27;20252;-75
2022/12/03 06:36:24;;;;;;;1.52;1.42;;;;;;;5.77;92.88;95499.66;5139196;27;20247;-73
2022/12/03 06:38:51;;;;;;;1.27;1.15;;;;;;;5.62;93.20;95487.91;5138822;27;20200;-74
2022/12/03 06:41:18;;;;;;;3.60;2.25;;;;;;;5.77;92.85;95489.72;5141263;27;20261;-75
2022/12/03 06:43:45;;;;;;;5.00;2.63;;;;;;;5.85;93.47;95493.72;5135982;27;20237;-72
2022/12/03 06:46:11;;;;;;;3.03;2.03;;;;;;;5.97;92.24;95489.66;5134405;27;20196;-74
2022/12/03 06:48:38;;;;;;;2.63;1.67;;;;;;;5.86;92.29;95492.66;5140211;27;20688;-73
2022/12/03 06:51:05;;;;;;;2.97;1.73;;;;;;;5.78;92.48;95493.22;5136242;27;20246;-73
2022/12/03 06:53:33;;;;;;;3.75;2.13;;;;;;;5.62;93.00;95490.59;5137325;27;20193;-73
2022/12/03 06:56:00;;;;;;;2.42;1.63;;;;;;;5.69;93.10;95491.13;5138886;27;20196;-73
2022/12/03 06:58:27;;;;;;;2.35;1.55;;;;;;;5.69;93.36;95483.03;5137808;27;20196;-70
2022/12/03 07:00:53;;;;;;;3.20;1.75;;;;;;;5.59;93.29;95488.47;5136767;27;20254;-72
2022/12/03 07:03:20;;;;;;;1.73;1.50;;;;;;;5.69;92.97;95484.94;5135178;27;20201;-73
2022/12/03 07:05:47;;;;;;;1.15;1.05;;;;;;;5.77;92.49;95495.09;5134220;27;20204;-75
2022/12/03 07:08:14;;;;;;;2.00;1.67;;;;;;;5.79;92.54;95497.50;5140250;27;20285;-73
2022/12/03 07:10:42;;;;;;;2.25;1.80;;;;;;;5.82;91.89;95503.16;5139538;27;20609;-73
2022/12/03 07:13:08;;;;;;;3.13;2.22;;;;;;;5.84;91.83;95506.38;5137082;27;20223;-74
2022/12/03 07:15:36;;;;;;;2.63;1.45;;;;;;;5.81;90.91;95506.13;5137950;27;20189;-72
2022/12/03 07:18:02;;;;;;;1.10;0.98;;;;;;;5.74;90.07;95500.25;5134485;27;20193;-73
2022/12/03 07:20:29;;;;;;;2.72;1.60;;;;;;;5.80;89.66;95509.88;5141217;27;20225;-72
2022/12/03 07:22:56;;;;;;;3.78;2.30;;;;;;;5.68;89.71;95519.06;5135908;27;20201;-75
2022/12/03 07:25:25;;;;;;;2.40;2.00;;;;;;;5.69;89.65;95512.63;5139465;27;20261;-73
2022/12/03 07:27:53;;;;;;;2.22;1.70;;;;;;;5.61;90.69;95513.16;5139221;27;20258;-73
2022/12/03 07:30:22;;;;;;;0.47;0.47;;;;;;;5.74;89.93;95505.63;5133002;27;20217;-74
2022/12/03 07:32:49;;;;;;;2.88;1.83;;;;;;;5.70;90.30;95516.91;5139660;27;20201;-73
2022/12/03 07:35:16;;;;;;;2.20;1.70;;;;;;;5.85;90.25;95517.94;5139922;27;20228;-74
2022/12/03 07:37:42;;;;;;;3.60;1.85;;;;;;;6.05;89.57;95521.34;5134506;27;20203;-73
2022/12/03 07:40:10;;;;;;;3.58;2.10;;;;;;;6.13;89.29;95525.34;5139958;27;20196;-72
2022/12/03 07:42:37;;;;;;;9.02;2.03;;;;;;;6.26;88.84;95527.44;5132179;27;20389;-73
2022/12/03 07:45:07;;;;;;;1.88;1.58;;;;;;;6.18;88.77;95525.31;5138703;27;20643;-72
2022/12/03 07:47:33;;;;;;;3.75;1.88;;;;;;;6.07;88.58;95523.75;5139419;27;20269;-73
2022/12/03 07:50:00;;;;;;;1.65;1.48;;;;;;;6.13;88.81;95528.06;5143042;27;20616;-73
2022/12/03 07:52:27;;;;;;;2.72;1.52;;;;;;;6.16;88.42;95524.78;5133690;27;20200;-73
2022/12/03 07:54:54;;;;;;;2.42;1.58;;;;;;;6.17;88.52;95529.09;5136537;27;20222;-74
2022/12/03 07:57:20;;;;;;;1.52;1.42;;;;;;;6.33;88.20;95536.00;5138650;27;20566;-74
2022/12/03 07:59:47;;;;;;;2.67;1.85;;;;;;;6.26;87.63;95522.06;5138440;27;20205;-72
2022/12/03 08:02:15;;;;;;;9.85;3.75;;;;;;;6.39;87.34;95524.13;5142405;27;20193;-71
2022/12/03 08:04:42;;;;;;;5.75;2.15;;;;;;;6.32;87.39;95518.22;5139646;27;20200;-74
2022/12/03 08:07:09;;;;;;;2.50;1.83;;;;;;;6.63;86.51;95523.44;5137841;27;20289;-72
2022/12/03 08:09:35;;;;;;;3.15;1.83;;;;;;;6.65;85.82;95522.06;5140954;27;20904;-73
2022/12/03 08:12:14;;;;;;;2.70;2.15;;;;;;;6.81;86.12;95525.44;5140833;27;20551;-72
2022/12/03 08:14:41;;;;;;;3.42;2.50;;;;;;;7.06;84.52;95527.94;5145057;27;20635;-74
2022/12/03 08:17:11;;;;;;;8.77;2.63;;;;;;;7.11;84.87;95525.16;5139472;27;20656;-74
2022/12/03 08:19:41;;;;;;;10.73;2.30;;;;;;;7.32;83.81;95525.00;5138333;27;20268;-74
2022/12/03 08:22:12;;;;;;;3.30;2.28;;;;;;;7.36;83.59;95521.44;5141860;27;20210;-74
2022/12/03 08:24:39;;;;;;;2.30;1.60;;;;;;;7.16;83.64;95531.59;5137836;27;20192;-72
2022/12/03 08:27:17;;;;;;;2.47;2.00;;;;;;;7.29;84.08;95533.63;5147681;27;20216;-73
2022/12/03 08:29:44;;;;;;;2.67;1.80;;;;;;;7.32;83.68;95541.16;5132887;27;20490;-73
2022/12/03 08:32:12;;;;;;;1.50;1.40;;;;;;;7.21;83.71;95539.66;5146187;27;20269;-73
2022/12/03 08:34:43;;;;;;;0.85;0.82;;;;;;;6.81;83.93;95547.00;5139824;27;20250;-73
2022/12/03 08:37:16;;;;;;;2.83;1.58;;;;;;;6.65;84.63;95553.56;5137320;27;20234;-72
2022/12/03 08:39:45;;;;;;;5.70;2.95;;;;;;;6.26;86.17;95554.34;5141510;27;20732;-72
2022/12/03 08:45:38;;;;;;;3.30;1.67;;;;;;;6.15;87.55;95560.84;5132090;27;20200;-74
2022/12/03 08:48:27;;;;;;;4.03;1.38;;;;;;;6.35;86.39;95549.16;5129991;27;20216;-74
2022/12/03 08:50:56;;;;;;;3.83;2.00;;;;;;;6.62;86.07;95548.72;5148583;27;20193;-74
2022/12/03 08:53:30;;;;;;;1.92;1.55;;;;;;;6.68;85.15;95544.94;5142587;27;20196;-75
2022/12/03 08:55:58;;;;;;;2.60;1.52;;;;;;;6.52;84.88;95554.19;5134476;27;20189;-75
2022/12/03 08:58:31;;;;;;;8.48;2.22;;;;;;;6.55;84.97;95554.44;5145289;27;20211;-74
2022/12/03 09:01:05;;;;;;;3.28;2.25;;;;;;;6.53;85.50;95545.03;5142192;27;20616;-76
2022/12/03 09:03:33;;;;;;;2.17;1.90;;;;;;;6.34;86.09;95545.69;5137955;27;20188;-75
2022/12/03 09:06:01;;;;;;;4.50;2.67;;;;;;;6.56;85.64;95539.88;5140529;27;20201;-74
2022/12/03 09:08:28;;;;;;;3.08;2.10;;;;;;;6.78;84.98;95547.53;5145095;27;20277;-74
2022/12/03 09:10:55;;;;;;;4.47;2.42;;;;;;;6.95;84.08;95542.56;5144027;27;20196;-73
2022/12/03 09:13:22;;;;;;;2.70;2.10;;;;;;;6.81;84.40;95547.00;5138674;27;20204;-74
2022/12/03 09:15:49;;;;;;;2.58;1.60;;;;;;;6.99;84.34;95553.56;5139907;27;20205;-74
2022/12/03 09:18:16;;;;;;;1.35;1.25;;;;;;;6.93;83.52;95544.75;5135008;27;20198;-74
2022/12/03 09:20:42;;;;;;;3.80;2.33;;;;;;;7.33;86.64;95537.38;5148514;27;20293;-71
2022/12/03 09:23:11;;;;;;;4.63;2.67;;;;;;;7.20;83.41;95538.03;5150920;27;20268;-73
2022/12/03 09:25:37;;;;;;;5.00;3.08;;;;;;;6.73;84.45;95544.88;5137926;27;20349;-74
2022/12/03 09:28:04;;;;;;;2.08;1.00;;;;;;;6.61;85.10;95539.84;5136437;27;20239;-74
2022/12/03 09:30:31;;;;;;;2.28;1.23;;;;;;;6.64;85.56;95543.88;5136403;27;20197;-73
2022/12/03 09:32:58;;;;;;;1.55;1.33;;;;;;;6.50;85.39;95545.59;5142178;27;20205;-74
2022/12/03 09:35:25;;;;;;;2.42;1.77;;;;;;;6.50;85.60;95542.91;5130038;27;20234;-74
2022/12/03 09:37:52;;;;;;;3.47;1.67;;;;;;;6.87;85.28;95540.47;5137136;27;20720;-75
2022/12/03 09:40:21;;;;;;;3.80;2.67;;;;;;;6.98;83.91;95536.59;5136264;27;20197;-75
2022/12/03 09:42:48;;;;;;;3.05;1.77;;;;;;;7.13;83.54;95528.38;5130479;27;20740;-75
2022/12/03 09:45:15;;;;;;;1.63;1.05;;;;;;;7.01;83.87;95529.84;5143887;27;20199;-74
2022/12/03 09:47:45;;;;;;;2.35;1.73;;;;;;;6.72;85.09;95529.81;5137997;27;20278;-74
2022/12/03 09:50:15;;;;;;;2.47;1.65;;;;;;;7.17;84.89;95527.81;5150528;27;20217;-74
2022/12/03 09:52:43;;;;;;;4.90;2.92;;;;;;;7.57;82.75;95522.03;5141787;27;20712;-74
2022/12/03 09:55:15;;;;;;;8.27;3.00;;;;;;;7.60;82.06;95521.47;5143913;27;20200;-74
2022/12/03 09:57:43;;;;;;;2.60;1.50;;;;;;;7.72;80.90;95519.16;5139641;27;20236;-75
2022/12/03 10:00:17;;;;;;;4.20;2.90;;;;;;;7.60;81.57;95507.97;5136134;27;20204;-74
2022/12/03 10:02:45;;;;;;;3.35;1.80;;;;;;;7.99;81.07;95504.28;5139018;27;20189;-75
2022/12/03 10:05:12;;;;;;;3.55;1.88;;;;;;;8.14;79.84;95504.09;5134758;27;20270;-74
2022/12/03 10:07:40;;;;;;;4.95;2.40;;;;;;;8.17;79.04;95498.09;5138252;27;20671;-74
2022/12/03 10:10:14;;;;;;;2.95;1.83;;;;;;;7.87;79.29;95498.50;5143818;27;20201;-74
2022/12/03 10:12:41;;;;;;;3.63;2.28;;;;;;;7.65;80.19;95501.75;5143705;27;20678;-73
2022/12/03 10:15:13;;;;;;;1.67;1.38;;;;;;;7.76;80.57;95487.84;5143300;27;20201;-74
2022/12/03 10:17:39;;;;;;;4.57;2.10;;;;;;;7.72;80.41;95497.59;5143278;27;20200;-73
2022/12/03 10:20:11;;;;;;;7.43;2.30;;;;;;;7.70;79.68;95490.88;5137306;27;20200;-74
2022/12/03 10:22:37;;;;;;;2.15;1.95;;;;;;;7.66;80.30;95493.34;5136555;27;20789;-74
2022/12/03 10:25:07;;;;;;;2.67;1.85;;;;;;;7.89;80.04;95486.34;5141644;27;20691;-74
2022/12/03 10:27:34;;;;;;;2.97;2.22;;;;;;;8.10;79.23;95482.25;5143473;27;20232;-73
2022/12/03 10:30:03;;;;;;;2.80;2.15;;;;;;;8.53;78.04;95485.72;5138283;27;20226;-73
2022/12/03 10:32:41;;;;;;;2.95;1.92;;;;;;;8.95;76.71;95481.28;5133064;27;20221;-72
2022/12/03 10:35:11;;;;;;;13.55;2.50;;;;;;;8.54;76.44;95487.34;5128804;27;20293;-73
2022/12/03 10:38:03;;;;;;;1.85;1.50;;;;;;;8.18;78.00;95478.13;5090785;27;20261;-74
2022/12/03 10:40:32;;;;;;;2.88;1.52;;;;;;;7.97;78.57;95482.97;5135549;27;20747;-74
2022/12/03 10:43:14;;;;;;;4.18;2.28;;;;;;;7.73;79.13;95485.72;5140964;27;20197;-73
2022/12/03 10:45:41;;;;;;;2.08;1.63;;;;;;;7.32;80.98;95490.75;5128705;27;20269;-73
2022/12/03 10:48:14;;;;;;;9.00;5.88;;;;;;;7.49;80.96;95476.84;5140862;27;20232;-73
2022/12/03 10:50:50;;;;;;;4.25;2.85;;;;;;;7.64;80.81;95484.75;5135651;27;20188;-74
2022/12/03 10:53:17;;;;;;;2.83;1.85;;;;;;;8.03;80.62;95472.94;5135686;27;20193;-74
2022/12/03 10:55:45;;;;;;;4.93;2.47;;;;;;;8.22;79.04;95476.44;5143069;27;20205;-73
2022/12/03 10:58:20;;;;;;;3.70;2.50;;;;;;;8.04;79.85;95471.84;5142829;27;20196;-73
2022/12/03 11:00:47;;;;;;;3.20;1.63;;;;;;;7.84;79.08;95467.50;5128969;28;20260;-74
2022/12/03 11:03:20;;;;;;;6.15;3.13;;;;;;;7.59;80.66;95470.53;5142601;27;20208;-73
2022/12/03 11:05:48;;;;;;;4.43;2.55;;;;;;;7.60;80.88;95472.13;5138956;27;20275;-74
2022/12/03 11:08:20;;;;;;;5.55;2.85;;;;;;;7.69;80.96;95465.78;5136169;27;20228;-74
2022/12/03 11:10:56;;;;;;;4.82;2.50;;;;;;;7.41;81.42;95464.78;5138507;27;20197;-74
2022/12/03 11:13:45;;;;;;;2.05;1.40;;;;;;;7.31;81.86;95458.69;5142960;27;20196;-73
2022/12/03 11:16:13;;;;;;;3.15;2.13;;;;;;;7.68;81.41;95469.59;5141188;27;20201;-73
2022/12/03 11:19:01;;;;;;;4.15;2.65;;;;;;;7.75;80.46;95470.06;5137531;27;20196;-74
2022/12/03 11:21:28;;;;;;;5.25;2.40;;;;;;;7.48;81.96;95467.16;5135752;27;20196;-74
2022/12/03 11:24:16;;;;;;;3.60;2.28;;;;;;;7.61;81.77;95466.44;5148582;27;20196;-74
2022/12/03 11:27:19;;;;;;;5.15;2.50;;;;;;;7.45;82.08;95459.63;5136582;27;20287;-73
2022/12/03 11:29:49;;;;;;;3.40;2.42;;;;;;;7.29;82.40;95466.25;5052960;28;20226;-74
2022/12/03 11:33:05;;;;;;;4.22;2.67;;;;;;;7.25;83.09;95465.22;5056593;28;20215;-73
2022/12/03 11:36:04;;;;;;;3.50;2.25;;;;;;;7.33;83.54;95470.00;5121733;27;20236;-73
2022/12/03 11:38:47;;;;;;;4.85;2.83;;;;;;;7.65;82.58;95447.81;5129479;27;20205;-73
2022/12/03 11:41:16;;;;;;;4.45;2.47;;;;;;;7.46;82.13;95450.44;5146756;27;20696;-74
2022/12/03 11:44:31;;;;;;;3.22;2.13;;;;;;;7.42;82.78;95449.41;5143229;27;20189;-71
2022/12/03 11:46:59;;;;;;;2.67;1.65;;;;;;;7.47;82.82;95452.06;5139951;27;20644;-71
2022/12/03 11:49:45;;;;;;;6.05;3.15;;;;;;;7.71;82.71;95452.84;5145624;27;20324;-73
2022/12/03 11:52:29;;;;;;;5.50;2.95;;;;;;;8.05;81.97;95446.47;5147435;27;20287;-74
2022/12/03 11:55:04;;;;;;;5.80;3.20;;;;;;;7.84;81.00;95441.34;5132630;27;20540;-73
2022/12/03 11:57:37;;;;;;;5.20;2.60;;;;;;;7.65;81.86;95443.22;5145297;27;20193;-73
2022/12/03 12:00:18;;;;;;;10.10;2.88;;;;;;;7.45;82.43;95441.56;5146468;27;20196;-73
2022/12/03 12:02:45;;;;;;;4.20;2.92;;;;;;;7.45;83.15;95432.66;5132535;27;20211;-73
2022/12/03 12:05:22;;;;;;;8.15;4.40;;;;;;;7.61;83.46;95434.09;5145669;27;20212;-72
2022/12/03 12:07:49;;;;;;;16.23;2.75;;;;;;;7.58;82.78;95447.34;5144868;27;20437;-72
2022/12/03 12:10:39;;;;;;;4.93;3.58;;;;;;;7.59;83.26;95444.34;5138325;27;20204;-72
2022/12/03 12:13:05;;;;;;;5.65;3.22;;;;;;;7.80;82.80;95445.69;5138441;27;20197;-73
2022/12/03 12:15:41;;;;;;;5.07;3.33;;;;;;;7.77;82.57;95442.78;5143626;27;20281;-72
2022/12/03 12:18:39;;;;;;;4.55;2.72;;;;;;;7.56;83.35;95444.94;5146093;27;20311;-73